createdAt,value
2017-05-18T00:02:15.375Z,20.30
2017-05-18T00:04:43.583Z,20.20
2017-05-18T00:07:11.811Z,20.20
2017-05-18T00:09:40.007Z,20.20
2017-05-18T00:12:08.210Z,20.10
2017-05-18T00:14:36.430Z,20.10
2017-05-18T00:17:04.635Z,20.10
2017-05-18T00:19:32.851Z,20.00
2017-05-18T00:22:01.068Z,20.00
2017-05-18T00:24:29.262Z,19.90
2017-05-18T00:26:57.463Z,19.90
2017-05-18T00:29:25.692Z,19.80
2017-05-18T00:31:53.890Z,19.80
2017-05-18T00:34:22.090Z,19.80
2017-05-18T00:36:50.303Z,19.80
2017-05-18T00:39:18.499Z,19.70
2017-05-18T00:41:46.703Z,19.70
2017-05-18T00:44:14.911Z,19.70
2017-05-18T00:46:43.116Z,19.70
2017-05-18T00:49:11.306Z,19.70
2017-05-18T00:51:39.523Z,19.70
2017-05-18T00:54:07.717Z,19.70
2017-05-18T00:56:35.915Z,19.70
2017-05-18T00:59:04.122Z,19.70
2017-05-18T01:01:32.354Z,19.70
2017-05-18T01:04:00.558Z,19.70
2017-05-18T01:06:28.767Z,19.60
2017-05-18T01:08:56.979Z,19.60
2017-05-18T01:11:25.187Z,19.60
2017-05-18T01:13:53.415Z,19.60
2017-05-18T01:16:21.603Z,19.60
2017-05-18T01:18:49.804Z,19.60
2017-05-18T01:21:18.028Z,19.50
2017-05-18T01:23:46.223Z,19.40
2017-05-18T01:26:14.418Z,19.50
2017-05-18T01:28:42.634Z,19.40
2017-05-18T01:31:10.845Z,19.40
2017-05-18T01:33:39.035Z,19.30
2017-05-18T01:36:07.255Z,19.30
2017-05-18T01:38:35.445Z,19.30
2017-05-18T01:41:02.875Z,19.30
2017-05-18T01:43:31.108Z,19.20
2017-05-18T01:45:59.299Z,19.20
2017-05-18T01:48:27.495Z,19.20
2017-05-18T01:50:55.719Z,19.20
2017-05-18T01:53:23.151Z,19.10
2017-05-18T01:55:51.351Z,19.20
2017-05-18T01:58:19.578Z,19.10
2017-05-18T02:00:47.776Z,19.10
2017-05-18T02:03:15.983Z,19.10
2017-05-18T02:05:43.432Z,19.10
2017-05-18T02:08:11.631Z,19.10
2017-05-18T02:10:39.055Z,19.00
2017-05-18T02:13:07.276Z,19.10
2017-05-18T02:15:35.471Z,19.10
2017-05-18T02:18:03.663Z,19.10
2017-05-18T02:20:31.899Z,19.10
2017-05-18T02:23:00.096Z,19.10
2017-05-18T02:25:28.291Z,19.10
2017-05-18T02:27:56.515Z,19.10
2017-05-18T02:30:24.727Z,19.00
2017-05-18T02:32:52.915Z,19.00
2017-05-18T02:35:21.134Z,18.90
2017-05-18T02:37:49.335Z,18.90
2017-05-18T02:40:17.536Z,19.00
2017-05-18T02:42:45.748Z,18.90
2017-05-18T02:45:13.963Z,18.90
2017-05-18T02:47:42.172Z,18.90
2017-05-18T02:50:10.394Z,18.90
2017-05-18T02:52:38.602Z,19.00
2017-05-18T02:55:06.816Z,19.00
2017-05-18T02:57:35.043Z,18.90
2017-05-18T03:00:03.259Z,18.90
2017-05-18T03:02:31.459Z,18.90
2017-05-18T03:04:59.687Z,18.90
2017-05-18T03:07:28.915Z,19.00
2017-05-18T03:09:57.126Z,18.90
2017-05-18T03:12:25.391Z,18.90
2017-05-18T03:14:53.587Z,18.80
2017-05-18T03:17:21.797Z,18.80
2017-05-18T03:19:50.034Z,18.80
2017-05-18T03:22:18.230Z,18.80
2017-05-18T03:24:46.436Z,18.70
2017-05-18T03:27:14.667Z,18.70
2017-05-18T03:29:42.871Z,18.60
2017-05-18T03:32:11.093Z,18.60
2017-05-18T03:34:39.315Z,18.60
2017-05-18T03:37:07.558Z,18.70
2017-05-18T03:39:35.758Z,18.70
2017-05-18T03:42:03.984Z,18.70
2017-05-18T03:44:32.193Z,18.70
2017-05-18T03:47:00.479Z,18.70
2017-05-18T03:49:28.725Z,18.70
2017-05-18T03:51:56.929Z,18.70
2017-05-18T03:54:25.120Z,18.60
2017-05-18T03:56:53.362Z,18.70
2017-05-18T03:59:21.558Z,18.70
2017-05-18T04:01:49.807Z,18.70
2017-05-18T04:04:18.019Z,18.70
2017-05-18T04:06:46.228Z,18.80
2017-05-18T04:09:14.434Z,18.90
2017-05-18T04:11:42.655Z,18.90
2017-05-18T04:14:10.854Z,19.00
2017-05-18T04:16:38.288Z,18.90
2017-05-18T04:19:06.500Z,19.00
2017-05-18T04:21:33.936Z,19.00
2017-05-18T04:24:01.387Z,19.10
2017-05-18T04:26:29.610Z,19.20
2017-05-18T04:28:57.832Z,19.20
2017-05-18T04:31:26.044Z,19.20
2017-05-18T04:33:54.259Z,19.20
2017-05-18T04:36:22.535Z,19.30
2017-05-18T04:38:50.740Z,19.30
2017-05-18T04:41:18.954Z,19.30
2017-05-18T04:43:47.168Z,19.30
2017-05-18T04:46:15.391Z,19.50
2017-05-18T04:48:43.621Z,19.50
2017-05-18T04:51:11.839Z,19.50
2017-05-18T04:53:40.043Z,19.70
2017-05-18T04:56:08.260Z,19.80
2017-05-18T04:58:36.470Z,19.80
2017-05-18T05:01:04.667Z,19.90
2017-05-18T05:03:32.907Z,20.00
2017-05-18T05:06:01.110Z,20.00
2017-05-18T05:08:29.315Z,20.00
2017-05-18T05:10:57.529Z,19.90
2017-05-18T05:13:25.730Z,19.90
2017-05-18T05:15:53.174Z,19.90
2017-05-18T05:18:21.411Z,20.00
2017-05-18T05:20:49.626Z,19.90
2017-05-18T05:23:17.905Z,19.90
2017-05-18T05:25:46.160Z,20.00
2017-05-18T05:28:14.368Z,20.00
2017-05-18T05:30:41.818Z,19.90
2017-05-18T05:33:10.058Z,20.20
2017-05-18T05:35:38.266Z,20.20
2017-05-18T05:38:06.493Z,20.30
2017-05-18T05:40:34.734Z,20.40
2017-05-18T05:43:02.938Z,20.40
2017-05-18T05:45:31.154Z,20.50
2017-05-18T05:47:59.362Z,20.60
2017-05-18T05:50:27.562Z,20.60
2017-05-18T05:52:55.792Z,20.60
2017-05-18T05:55:24.008Z,20.60
2017-05-18T05:57:52.200Z,20.70
2017-05-18T06:00:20.482Z,20.80
2017-05-18T06:02:48.703Z,20.80
2017-05-18T06:05:16.919Z,20.80
2017-05-18T06:07:45.140Z,20.90
2017-05-18T06:10:13.383Z,21.00
2017-05-18T06:12:41.579Z,21.10
2017-05-18T06:15:09.800Z,21.10
2017-05-18T06:17:38.075Z,21.10
2017-05-18T06:20:06.315Z,21.20
2017-05-18T06:22:34.515Z,21.20
2017-05-18T06:25:02.748Z,21.30
2017-05-18T06:27:30.951Z,21.30
2017-05-18T06:29:59.294Z,21.30
2017-05-18T06:32:27.503Z,21.20
2017-05-18T06:34:55.720Z,21.30
2017-05-18T06:37:23.918Z,21.30
2017-05-18T06:39:52.145Z,21.50
2017-05-18T06:42:20.338Z,21.50
2017-05-18T06:44:48.592Z,21.50
2017-05-18T06:47:16.858Z,21.60
2017-05-18T06:49:45.113Z,21.80
2017-05-18T06:52:13.330Z,21.80
2017-05-18T06:54:41.568Z,21.90
2017-05-18T06:57:09.811Z,22.00
2017-05-18T06:59:38.015Z,22.10
2017-05-18T07:02:06.262Z,22.20
2017-05-18T07:04:34.471Z,22.20
2017-05-18T07:07:02.705Z,22.20
2017-05-18T07:09:30.963Z,22.30
2017-05-18T07:11:59.175Z,22.40
2017-05-18T07:14:27.383Z,22.50
2017-05-18T07:16:55.615Z,22.60
2017-05-18T07:19:23.850Z,22.70
2017-05-18T07:21:52.457Z,22.80
2017-05-18T07:24:20.711Z,22.80
2017-05-18T07:26:48.902Z,23.00
2017-05-18T07:29:17.155Z,23.10
2017-05-18T07:31:45.395Z,23.20
2017-05-18T07:34:13.619Z,23.30
2017-05-18T07:36:41.827Z,23.40
2017-05-18T07:39:10.070Z,23.50
2017-05-18T07:41:38.292Z,23.70
2017-05-18T07:44:06.535Z,23.80
2017-05-18T07:46:34.758Z,23.90
2017-05-18T07:49:02.958Z,24.00
2017-05-18T07:51:31.167Z,24.10
2017-05-18T07:53:59.403Z,24.20
2017-05-18T07:56:27.615Z,24.30
2017-05-18T07:58:55.853Z,24.30
2017-05-18T08:01:24.100Z,24.30
2017-05-18T08:03:52.308Z,24.50
2017-05-18T08:06:20.534Z,24.60
2017-05-18T08:08:48.773Z,24.70
2017-05-18T08:11:17.039Z,24.80
2017-05-18T08:13:45.246Z,24.80
2017-05-18T08:16:13.545Z,24.80
2017-05-18T08:18:41.747Z,25.00
2017-05-18T08:21:09.976Z,25.10
2017-05-18T08:23:38.304Z,25.10
2017-05-18T08:26:06.526Z,25.10
2017-05-18T08:28:34.719Z,25.10
2017-05-18T08:31:02.947Z,25.10
2017-05-18T08:33:31.163Z,25.00
2017-05-18T08:35:59.375Z,25.20
2017-05-18T08:38:27.588Z,25.20
2017-05-18T08:40:55.847Z,25.10
2017-05-18T08:43:24.046Z,25.00
2017-05-18T08:45:52.266Z,25.10
2017-05-18T08:48:20.493Z,25.10
2017-05-18T08:50:48.682Z,25.30
2017-05-18T08:53:16.924Z,25.40
2017-05-18T08:55:45.115Z,25.50
2017-05-18T08:58:13.319Z,25.80
2017-05-18T09:00:41.558Z,26.00
2017-05-18T09:03:09.755Z,26.20
2017-05-18T09:05:37.971Z,26.30
2017-05-18T09:08:06.241Z,26.30
2017-05-18T09:10:34.440Z,26.40
2017-05-18T09:13:02.639Z,26.50
2017-05-18T09:15:30.851Z,26.60
2017-05-18T09:17:59.148Z,26.50
2017-05-18T09:20:27.363Z,26.50
2017-05-18T09:22:55.579Z,26.50
2017-05-18T09:25:23.770Z,26.50
2017-05-18T09:27:51.975Z,26.30
2017-05-18T09:30:20.248Z,25.80
2017-05-18T09:32:48.485Z,25.40
2017-05-18T09:35:16.694Z,25.30
2017-05-18T09:37:44.942Z,25.40
2017-05-18T09:40:13.404Z,25.30
2017-05-18T09:42:41.647Z,25.30
2017-05-18T09:45:09.875Z,25.30
2017-05-18T09:47:38.099Z,25.30
2017-05-18T09:50:06.307Z,25.30
2017-05-18T09:52:34.600Z,25.40
2017-05-18T09:55:02.796Z,25.60
2017-05-18T09:57:30.999Z,25.70
2017-05-18T09:59:58.452Z,25.70
2017-05-18T10:02:26.655Z,25.80
2017-05-18T10:04:54.906Z,25.90
2017-05-18T10:07:23.129Z,25.80
2017-05-18T10:09:51.339Z,26.10
2017-05-18T10:12:19.535Z,26.10
2017-05-18T10:14:47.750Z,26.10
2017-05-18T10:17:15.981Z,26.10
2017-05-18T10:19:44.171Z,26.30
2017-05-18T10:22:12.384Z,26.40
2017-05-18T10:24:40.586Z,26.50
2017-05-18T10:27:08.786Z,26.50
2017-05-18T10:29:37.067Z,26.40
2017-05-18T10:32:05.248Z,26.40
2017-05-18T10:34:32.671Z,26.40
2017-05-18T10:37:00.895Z,26.70
2017-05-18T10:39:29.100Z,26.50
2017-05-18T10:41:57.375Z,26.40
2017-05-18T10:44:25.582Z,26.50
2017-05-18T10:46:53.778Z,26.50
2017-05-18T10:49:21.984Z,26.50
2017-05-18T10:51:50.200Z,26.50
2017-05-18T10:54:18.395Z,26.50
2017-05-18T10:56:45.835Z,26.40
2017-05-18T10:59:14.055Z,26.00
2017-05-18T11:01:42.248Z,26.00
2017-05-18T11:04:10.447Z,26.20
2017-05-18T11:06:38.684Z,26.40
2017-05-18T11:09:06.922Z,26.50
2017-05-18T11:11:35.339Z,26.50
2017-05-18T11:14:03.580Z,26.60
2017-05-18T11:16:31.775Z,26.50
2017-05-18T11:18:59.971Z,26.70
2017-05-18T11:21:28.254Z,26.70
2017-05-18T11:23:56.451Z,26.70
2017-05-18T11:26:24.671Z,26.60
2017-05-18T11:28:52.884Z,26.50
2017-05-18T11:31:21.107Z,26.50
2017-05-18T11:33:49.335Z,26.70
2017-05-18T11:36:17.554Z,26.80
2017-05-18T11:38:45.763Z,26.60
2017-05-18T11:41:13.955Z,26.60
2017-05-18T11:43:42.181Z,26.80
2017-05-18T11:46:10.385Z,26.90
2017-05-18T11:48:38.617Z,26.90
2017-05-18T11:51:06.844Z,26.90
2017-05-18T11:53:35.085Z,26.90
2017-05-18T11:56:03.314Z,27.00
2017-05-18T11:58:31.536Z,27.30
2017-05-18T12:00:59.738Z,27.20
2017-05-18T12:03:27.935Z,27.20
2017-05-18T12:05:56.145Z,27.20
2017-05-18T12:08:24.340Z,27.10
2017-05-18T12:10:52.563Z,26.70
2017-05-18T12:13:20.795Z,26.60
2017-05-18T12:15:49.000Z,26.50
2017-05-18T12:18:17.207Z,25.80
2017-05-18T12:20:45.456Z,25.00
2017-05-18T12:23:13.656Z,25.00
2017-05-18T12:25:41.851Z,24.80
2017-05-18T12:28:10.072Z,24.50
2017-05-18T12:30:38.282Z,24.20
2017-05-18T12:33:06.481Z,23.70
2017-05-18T12:35:34.710Z,23.60
2017-05-18T12:38:02.912Z,23.60
2017-05-18T12:40:31.127Z,23.50
2017-05-18T12:42:59.400Z,23.50
2017-05-18T12:45:27.604Z,23.40
2017-05-18T12:47:55.810Z,23.40
2017-05-18T12:50:24.047Z,23.20
2017-05-18T12:52:52.282Z,23.10
2017-05-18T12:55:20.487Z,23.00
2017-05-18T12:57:48.752Z,23.20
2017-05-18T13:00:17.021Z,22.90
2017-05-18T13:02:45.219Z,22.50
2017-05-18T13:05:13.447Z,22.30
2017-05-18T13:07:41.667Z,22.20
2017-05-18T13:10:09.935Z,22.20
2017-05-18T13:12:38.667Z,22.10
2017-05-18T13:15:06.875Z,22.00
2017-05-18T13:17:35.088Z,22.00
2017-05-18T13:20:03.322Z,22.00
2017-05-18T13:22:31.522Z,22.10
2017-05-18T13:24:59.732Z,22.20
2017-05-18T13:27:27.991Z,22.00
2017-05-18T13:29:56.194Z,22.00
2017-05-18T13:32:24.411Z,21.80
2017-05-18T13:34:52.644Z,21.50
2017-05-18T13:37:20.864Z,21.40
2017-05-18T13:39:48.316Z,21.30
2017-05-18T13:42:16.526Z,21.60
2017-05-18T13:44:44.747Z,21.60
2017-05-18T13:47:12.952Z,21.50
2017-05-18T13:49:41.196Z,21.40
2017-05-18T13:52:09.407Z,21.40
2017-05-18T13:54:37.612Z,21.40
2017-05-18T13:57:05.852Z,21.50
2017-05-18T13:59:34.051Z,21.70
2017-05-18T14:02:02.291Z,21.50
2017-05-18T14:04:30.519Z,21.30
2017-05-18T14:06:58.746Z,21.10
2017-05-18T14:09:26.939Z,21.20
2017-05-18T14:11:55.226Z,20.90
2017-05-18T14:14:23.410Z,20.80
2017-05-18T14:16:51.625Z,20.80
2017-05-18T14:19:19.846Z,20.90
2017-05-18T14:21:48.103Z,20.80
2017-05-18T14:24:16.303Z,20.70
2017-05-18T14:26:44.550Z,20.60
2017-05-18T14:29:12.751Z,20.70
2017-05-18T14:31:40.939Z,20.60
2017-05-18T14:34:09.165Z,20.60
2017-05-18T14:36:37.411Z,20.60
2017-05-18T14:39:05.640Z,20.40
2017-05-18T14:41:33.870Z,20.40
2017-05-18T14:44:02.058Z,20.60
2017-05-18T14:46:29.533Z,20.50
2017-05-18T14:48:57.763Z,20.40
2017-05-18T14:51:25.955Z,20.50
2017-05-18T14:53:54.184Z,20.60
2017-05-18T14:56:22.414Z,20.70
2017-05-18T14:58:50.619Z,20.80
2017-05-18T15:01:18.818Z,20.90
2017-05-18T15:03:47.058Z,20.70
2017-05-18T15:06:15.263Z,20.70
2017-05-18T15:08:43.493Z,20.60
2017-05-18T15:11:11.789Z,20.70
2017-05-18T15:13:39.979Z,20.50
2017-05-18T15:16:08.182Z,20.50
2017-05-18T15:18:36.375Z,20.60
2017-05-18T15:21:04.579Z,20.40
2017-05-18T15:23:32.010Z,20.40
2017-05-18T15:26:00.231Z,20.30
2017-05-18T15:28:28.435Z,20.50
2017-05-18T15:30:56.627Z,20.50
2017-05-18T15:33:24.859Z,20.40
2017-05-18T15:35:53.055Z,20.40
2017-05-18T15:38:21.276Z,20.50
2017-05-18T15:40:49.498Z,21.00
2017-05-18T15:43:17.695Z,21.80
2017-05-18T15:45:45.899Z,22.40
2017-05-18T15:48:14.098Z,21.70
2017-05-18T15:50:42.306Z,21.50
2017-05-18T15:53:10.508Z,21.40
2017-05-18T15:55:38.824Z,21.30
2017-05-18T15:58:07.062Z,21.80
2017-05-18T16:00:35.281Z,21.80
2017-05-18T16:03:03.592Z,21.80
2017-05-18T16:05:31.800Z,21.60
2017-05-18T16:08:00.044Z,21.20
2017-05-18T16:10:28.275Z,21.00
2017-05-18T16:12:56.488Z,20.80
2017-05-18T16:15:24.691Z,20.80
2017-05-18T16:17:52.907Z,20.80
2017-05-18T16:20:21.796Z,20.80
2017-05-18T16:22:49.989Z,20.60
2017-05-18T16:25:18.231Z,20.70
2017-05-18T16:27:46.430Z,20.90
2017-05-18T16:30:14.646Z,20.80
2017-05-18T16:32:42.859Z,20.50
2017-05-18T16:35:11.056Z,20.40
2017-05-18T16:37:39.247Z,20.10
2017-05-18T16:40:06.703Z,20.10
2017-05-18T16:42:34.159Z,20.00
2017-05-18T16:45:02.355Z,19.90
2017-05-18T16:47:30.591Z,19.70
2017-05-18T16:49:58.815Z,19.70
2017-05-18T16:52:27.025Z,19.70
2017-05-18T16:54:55.226Z,19.70
2017-05-18T16:57:22.677Z,19.70
2017-05-18T16:59:50.871Z,19.70
2017-05-18T17:02:19.114Z,19.50
2017-05-18T17:04:47.332Z,19.40
2017-05-18T17:07:15.647Z,19.20
2017-05-18T17:09:43.863Z,19.20
2017-05-18T17:12:12.070Z,19.10
2017-05-18T17:14:40.284Z,19.10
2017-05-18T17:17:08.507Z,19.10
2017-05-18T17:19:36.707Z,18.90
2017-05-18T17:22:04.908Z,18.70
2017-05-18T17:24:33.129Z,18.70
2017-05-18T17:27:01.355Z,18.60
2017-05-18T17:29:29.555Z,18.60
2017-05-18T17:31:57.904Z,18.60
2017-05-18T17:34:26.106Z,18.60
2017-05-18T17:36:54.333Z,18.60
2017-05-18T17:39:22.564Z,18.70
2017-05-18T17:41:50.755Z,18.70
2017-05-18T17:44:18.946Z,18.70
2017-05-18T17:46:47.172Z,18.50
2017-05-18T17:49:15.383Z,18.40
2017-05-18T17:51:43.629Z,18.40
2017-05-18T17:54:11.836Z,18.50
2017-05-18T17:56:40.052Z,18.50
2017-05-18T17:59:08.256Z,18.50
2017-05-18T18:01:36.475Z,18.50
2017-05-18T18:04:04.690Z,18.60
2017-05-18T18:06:32.914Z,18.70
2017-05-18T18:09:01.136Z,18.70
2017-05-18T18:11:29.355Z,18.70
2017-05-18T18:13:57.565Z,18.80
2017-05-18T18:16:25.799Z,18.90
2017-05-18T18:18:54.008Z,18.90
2017-05-18T18:21:22.227Z,19.00
2017-05-18T18:23:50.489Z,18.90
2017-05-18T18:26:18.708Z,18.90
2017-05-18T18:28:46.946Z,18.90
2017-05-18T18:31:15.169Z,18.70
2017-05-18T18:33:43.388Z,18.80
2017-05-18T18:36:11.593Z,18.80
2017-05-18T18:38:39.807Z,18.80
2017-05-18T18:41:07.253Z,18.70
2017-05-18T18:43:35.463Z,18.80
2017-05-18T18:46:02.932Z,18.80
2017-05-18T18:48:31.154Z,18.60
2017-05-18T18:50:59.375Z,18.40
2017-05-18T18:53:27.601Z,18.30
2017-05-18T18:55:55.801Z,18.20
2017-05-18T18:58:24.461Z,18.10
2017-05-18T19:00:52.699Z,18.00
2017-05-18T19:03:20.932Z,18.10
2017-05-18T19:05:49.127Z,18.10
2017-05-18T19:08:17.382Z,18.10
2017-05-18T19:10:45.602Z,18.10
2017-05-18T19:13:13.811Z,18.10
2017-05-18T19:15:42.048Z,18.20
2017-05-18T19:18:10.270Z,18.10
2017-05-18T19:20:38.566Z,17.90
2017-05-18T19:23:06.855Z,17.60
2017-05-18T19:25:35.089Z,17.60
2017-05-18T19:28:03.317Z,17.60
2017-05-18T19:30:31.543Z,17.60
2017-05-18T19:32:59.749Z,17.50
2017-05-18T19:35:28.030Z,17.50
2017-05-18T19:37:56.259Z,17.40
2017-05-18T19:40:24.472Z,17.40
2017-05-18T19:42:52.725Z,17.30
2017-05-18T19:45:20.919Z,17.20
2017-05-18T19:47:49.141Z,17.20
2017-05-18T19:50:17.351Z,17.30
2017-05-18T19:52:45.568Z,17.40
2017-05-18T19:55:13.816Z,17.40
2017-05-18T19:57:42.030Z,17.30
2017-05-18T20:00:10.259Z,17.30
2017-05-18T20:02:39.038Z,17.20
2017-05-18T20:05:07.286Z,17.10
2017-05-18T20:07:35.557Z,17.10
2017-05-18T20:10:03.789Z,17.00
2017-05-18T20:12:32.025Z,17.00
2017-05-18T20:15:00.228Z,17.00
2017-05-18T20:17:28.512Z,16.90
2017-05-18T20:19:56.991Z,16.90
2017-05-18T20:22:25.273Z,16.90
2017-05-18T20:24:53.695Z,16.90
2017-05-18T20:27:21.954Z,16.90
2017-05-18T20:29:50.284Z,17.00
2017-05-18T20:32:18.828Z,17.00
2017-05-18T20:34:47.153Z,17.10
2017-05-18T20:37:15.659Z,17.10
2017-05-18T20:39:43.964Z,17.20
2017-05-18T20:42:12.303Z,17.20
2017-05-18T20:44:40.784Z,17.20
2017-05-18T20:47:09.053Z,17.30
2017-05-18T20:49:37.304Z,17.20
2017-05-18T20:52:05.595Z,16.90
2017-05-18T20:54:33.905Z,16.80
2017-05-18T20:57:02.191Z,16.80
2017-05-18T20:59:30.438Z,16.80
2017-05-18T21:01:58.640Z,16.80
2017-05-18T21:04:26.909Z,16.70
2017-05-18T21:06:55.139Z,16.70
2017-05-18T21:09:23.359Z,16.60
2017-05-18T21:11:51.570Z,16.70
2017-05-18T21:14:19.839Z,16.80
2017-05-18T21:16:48.050Z,16.80
2017-05-18T21:19:16.256Z,17.00
2017-05-18T21:21:44.500Z,17.10
2017-05-18T21:24:12.705Z,17.00
2017-05-18T21:26:40.902Z,16.10
2017-05-18T21:29:09.121Z,17.10
2017-05-18T21:31:38.243Z,17.10
2017-05-18T21:34:06.426Z,17.10
2017-05-18T21:36:34.639Z,17.00
2017-05-18T21:39:02.836Z,17.10
2017-05-18T21:41:31.039Z,17.10
2017-05-18T21:43:59.250Z,17.00
2017-05-18T21:46:27.447Z,17.10
2017-05-18T21:48:55.667Z,16.90
2017-05-18T21:51:23.859Z,16.70
2017-05-18T21:53:52.122Z,16.60
2017-05-18T21:56:20.339Z,16.50
2017-05-18T21:58:48.560Z,16.40
2017-05-18T22:01:16.759Z,16.30
2017-05-18T22:03:44.965Z,16.30
2017-05-18T22:06:13.180Z,16.20
2017-05-18T22:08:41.376Z,16.10
2017-05-18T22:11:09.611Z,16.20
2017-05-18T22:13:37.824Z,16.00
2017-05-18T22:16:06.026Z,15.90
2017-05-18T22:18:34.230Z,15.90
2017-05-18T22:21:02.435Z,15.90
2017-05-18T22:23:30.654Z,15.90
2017-05-18T22:25:58.871Z,15.90
2017-05-18T22:28:27.081Z,15.90
2017-05-18T22:30:55.291Z,15.90
2017-05-18T22:33:23.501Z,15.90
2017-05-18T22:35:51.702Z,15.80
2017-05-18T22:38:19.903Z,15.80
2017-05-18T22:40:48.142Z,15.80
2017-05-18T22:43:16.339Z,15.80
2017-05-18T22:45:44.540Z,15.80
2017-05-18T22:48:12.740Z,15.80
2017-05-18T22:50:40.979Z,15.90
2017-05-18T22:53:09.177Z,15.90
2017-05-18T22:55:37.366Z,15.80
2017-05-18T22:58:05.591Z,15.70
2017-05-18T23:00:33.798Z,15.70
2017-05-18T23:03:02.015Z,15.70
2017-05-18T23:05:30.223Z,15.60
2017-05-18T23:07:58.435Z,15.50
2017-05-18T23:10:26.657Z,15.50
2017-05-18T23:12:54.867Z,15.40
2017-05-18T23:15:23.084Z,15.40
2017-05-18T23:17:51.293Z,15.40
2017-05-18T23:20:20.541Z,15.50
2017-05-18T23:22:48.759Z,15.50
2017-05-18T23:25:16.970Z,15.50
2017-05-18T23:27:45.185Z,15.50
2017-05-18T23:30:13.410Z,15.50
2017-05-18T23:32:41.626Z,15.60
2017-05-18T23:35:09.065Z,15.50
2017-05-18T23:37:37.280Z,15.70
2017-05-18T23:40:05.517Z,15.70
2017-05-18T23:42:33.734Z,15.80
2017-05-18T23:45:01.956Z,15.90
2017-05-18T23:47:30.178Z,15.90
2017-05-18T23:49:58.371Z,16.00
2017-05-18T23:52:26.594Z,16.00
2017-05-18T23:54:54.793Z,16.00
2017-05-18T23:57:22.992Z,16.00
2017-05-18T23:59:51.215Z,16.20
